createdAt,value
2023-04-22T00:00:34.465Z,1056.00
2023-04-22T00:01:34.480Z,1063.00
2023-04-22T00:02:34.621Z,1056.00
2023-04-22T00:03:34.770Z,1058.00
2023-04-22T00:04:34.789Z,1045.00
2023-04-22T00:05:34.588Z,1048.00
2023-04-22T00:06:34.622Z,1050.00
2023-04-22T00:07:34.669Z,1045.00
2023-04-22T00:08:34.680Z,1045.00
2023-04-22T00:09:34.686Z,1044.00
2023-04-22T00:10:34.724Z,1040.00
2023-04-22T00:11:34.757Z,1039.00
2023-04-22T00:12:34.782Z,1039.00
2023-04-22T00:13:34.769Z,1029.00
2023-04-22T00:14:34.819Z,1046.00
2023-04-22T00:15:34.870Z,1038.00
2023-04-22T00:16:34.954Z,1032.00
2023-04-22T00:17:34.907Z,1036.00
2023-04-22T00:18:34.909Z,1032.00
2023-04-22T00:19:35.184Z,1025.00
2023-04-22T00:20:34.987Z,1032.00
2023-04-22T00:21:35.002Z,1025.00
2023-04-22T00:22:35.021Z,1029.00
2023-04-22T00:23:35.047Z,1028.00
2023-04-22T00:24:35.092Z,1018.00
2023-04-22T00:25:35.072Z,1025.00
2023-04-22T00:26:35.105Z,1027.00
2023-04-22T00:27:35.112Z,1013.00
2023-04-22T00:28:35.122Z,1016.00
2023-04-22T00:29:35.141Z,1013.00
2023-04-22T00:30:35.159Z,1013.00
2023-04-22T00:31:35.234Z,1010.00
2023-04-22T00:32:35.205Z,1016.00
2023-04-22T00:33:35.237Z,1014.00
2023-04-22T00:34:35.211Z,1012.00
2023-04-22T00:35:35.269Z,1013.00
2023-04-22T00:36:35.272Z,1016.00
2023-04-22T00:37:35.304Z,1005.00
2023-04-22T00:38:35.316Z,1010.00
2023-04-22T00:39:35.328Z,1014.00
2023-04-22T00:40:35.345Z,1000.00
2023-04-22T00:41:35.353Z,1002.00
2023-04-22T00:42:35.400Z,1007.00
2023-04-22T00:43:35.388Z,1000.00
2023-04-22T00:44:35.443Z,994.00
2023-04-22T00:45:35.413Z,1005.00
2023-04-22T00:46:35.481Z,1001.00
2023-04-22T00:47:35.479Z,990.00
2023-04-22T00:48:35.476Z,989.00
2023-04-22T00:49:35.504Z,996.00
2023-04-22T00:50:35.563Z,984.00
2023-04-22T00:51:35.569Z,996.00
2023-04-22T00:52:35.573Z,997.00
2023-04-22T00:53:35.569Z,993.00
2023-04-22T00:54:35.586Z,986.00
2023-04-22T00:55:35.646Z,979.00
2023-04-22T00:56:35.623Z,981.00
2023-04-22T00:57:35.628Z,980.00
2023-04-22T00:58:35.679Z,972.00
2023-04-22T00:59:35.689Z,983.00
2023-04-22T01:00:35.749Z,974.00
2023-04-22T01:01:35.775Z,979.00
2023-04-22T01:02:35.874Z,981.00
2023-04-22T01:03:35.848Z,972.00
2023-04-22T01:04:35.786Z,975.00
2023-04-22T01:05:35.816Z,971.00
2023-04-22T01:06:35.844Z,969.00
2023-04-22T01:07:35.838Z,970.00
2023-04-22T01:08:35.856Z,971.00
2023-04-22T01:09:35.914Z,979.00
2023-04-22T01:10:35.979Z,971.00
2023-04-22T01:11:35.987Z,970.00
2023-04-22T01:12:36.028Z,970.00
2023-04-22T01:13:36.050Z,964.00
2023-04-22T01:14:36.054Z,963.00
2023-04-22T01:15:36.087Z,961.00
2023-04-22T01:16:36.126Z,960.00
2023-04-22T01:17:36.155Z,959.00
2023-04-22T01:18:36.117Z,955.00
2023-04-22T01:19:36.202Z,959.00
2023-04-22T01:20:36.168Z,951.00
2023-04-22T01:21:36.181Z,954.00
2023-04-22T01:22:36.196Z,960.00
2023-04-22T01:23:36.204Z,949.00
2023-04-22T01:24:36.232Z,953.00
2023-04-22T01:25:36.240Z,952.00
2023-04-22T01:26:36.256Z,943.00
2023-04-22T01:27:36.287Z,940.00
2023-04-22T01:28:36.294Z,946.00
2023-04-22T01:29:36.327Z,950.00
2023-04-22T01:30:36.341Z,947.00
2023-04-22T01:31:36.369Z,942.00
2023-04-22T01:32:36.430Z,946.00
2023-04-22T01:33:36.408Z,946.00
2023-04-22T01:34:36.440Z,943.00
2023-04-22T01:35:36.428Z,940.00
2023-04-22T01:36:36.468Z,942.00
2023-04-22T01:37:36.467Z,940.00
2023-04-22T01:38:36.483Z,939.00
2023-04-22T01:39:36.484Z,934.00
2023-04-22T01:40:36.537Z,935.00
2023-04-22T01:41:36.555Z,934.00
2023-04-22T01:42:36.577Z,928.00
2023-04-22T01:43:36.589Z,933.00
2023-04-22T01:44:36.600Z,925.00
2023-04-22T01:45:36.726Z,929.00
2023-04-22T01:46:36.687Z,916.00
2023-04-22T01:47:36.694Z,926.00
2023-04-22T01:48:36.638Z,928.00
2023-04-22T01:49:36.688Z,933.00
2023-04-22T01:50:36.695Z,924.00
2023-04-22T01:51:36.736Z,915.00
2023-04-22T01:52:36.694Z,922.00
2023-04-22T01:53:36.746Z,916.00
2023-04-22T01:54:36.752Z,917.00
2023-04-22T01:55:36.757Z,918.00
2023-04-22T01:56:36.796Z,918.00
2023-04-22T01:57:36.822Z,912.00
2023-04-22T01:58:36.819Z,916.00
2023-04-22T01:59:37.011Z,917.00
2023-04-22T02:00:36.841Z,914.00
2023-04-22T02:01:36.963Z,903.00
2023-04-22T02:02:36.922Z,914.00
2023-04-22T02:03:36.905Z,917.00
2023-04-22T02:04:36.962Z,909.00
2023-04-22T02:05:36.933Z,902.00
2023-04-22T02:06:36.916Z,910.00
2023-04-22T02:07:36.918Z,902.00
2023-04-22T02:08:36.964Z,897.00
2023-04-22T02:09:37.250Z,900.00
2023-04-22T02:10:36.974Z,897.00
2023-04-22T02:11:37.001Z,900.00
2023-04-22T02:12:37.023Z,895.00
2023-04-22T02:13:37.040Z,891.00
2023-04-22T02:14:37.084Z,882.00
2023-04-22T02:15:37.085Z,897.00
2023-04-22T02:16:37.073Z,892.00
2023-04-22T02:17:37.097Z,890.00
2023-04-22T02:18:37.107Z,889.00
2023-04-22T02:19:37.424Z,895.00
2023-04-22T02:20:37.106Z,896.00
2023-04-22T02:21:37.169Z,882.00
2023-04-22T02:22:37.167Z,873.00
2023-04-22T02:23:37.202Z,884.00
2023-04-22T02:24:37.219Z,877.00
2023-04-22T02:25:37.214Z,883.00
2023-04-22T02:26:37.214Z,886.00
2023-04-22T02:27:37.221Z,874.00
2023-04-22T02:28:37.230Z,886.00
2023-04-22T02:29:37.721Z,877.00
2023-04-22T02:30:37.283Z,873.00
2023-04-22T02:31:37.308Z,881.00
2023-04-22T02:32:37.315Z,878.00
2023-04-22T02:33:37.311Z,872.00
2023-04-22T02:34:37.364Z,871.00
2023-04-22T02:35:37.342Z,860.00
2023-04-22T02:36:37.373Z,872.00
2023-04-22T02:37:37.359Z,875.00
2023-04-22T02:38:37.377Z,868.00
2023-04-22T02:39:37.594Z,867.00
2023-04-22T02:40:37.429Z,863.00
2023-04-22T02:41:37.436Z,859.00
2023-04-22T02:42:37.444Z,860.00
2023-04-22T02:43:37.480Z,861.00
2023-04-22T02:44:37.493Z,852.00
2023-04-22T02:45:37.495Z,860.00
2023-04-22T02:46:37.511Z,848.00
2023-04-22T02:47:37.603Z,865.00
2023-04-22T02:48:37.559Z,860.00
2023-04-22T02:49:37.827Z,852.00
2023-04-22T02:50:37.589Z,856.00
2023-04-22T02:51:37.571Z,849.00
2023-04-22T02:52:37.589Z,846.00
2023-04-22T02:53:37.590Z,858.00
2023-04-22T02:54:37.633Z,847.00
2023-04-22T02:55:37.622Z,856.00
2023-04-22T02:56:37.660Z,846.00
2023-04-22T02:57:37.688Z,855.00
2023-04-22T02:58:37.684Z,843.00
2023-04-22T02:59:38.025Z,842.00
2023-04-22T03:00:37.761Z,845.00
2023-04-22T03:01:37.697Z,846.00
2023-04-22T03:02:37.869Z,847.00
2023-04-22T03:03:38.016Z,838.00
2023-04-22T03:04:37.784Z,831.00
2023-04-22T03:05:37.771Z,833.00
2023-04-22T03:06:37.775Z,836.00
2023-04-22T03:07:37.775Z,844.00
2023-04-22T03:08:37.785Z,842.00
2023-04-22T03:09:38.036Z,825.00
2023-04-22T03:10:37.847Z,823.00
2023-04-22T03:11:37.863Z,834.00
2023-04-22T03:12:37.849Z,834.00
2023-04-22T03:13:37.865Z,832.00
2023-04-22T03:14:37.873Z,831.00
2023-04-22T03:15:37.868Z,828.00
2023-04-22T03:16:37.928Z,826.00
2023-04-22T03:17:37.995Z,826.00
2023-04-22T03:18:37.901Z,826.00
2023-04-22T03:19:38.180Z,824.00
2023-04-22T03:20:37.909Z,822.00
2023-04-22T03:21:37.933Z,824.00
2023-04-22T03:22:37.930Z,823.00
2023-04-22T03:23:37.941Z,821.00
2023-04-22T03:24:37.963Z,812.00
2023-04-22T03:25:37.977Z,818.00
2023-04-22T03:26:37.966Z,815.00
2023-04-22T03:27:37.992Z,814.00
2023-04-22T03:28:37.983Z,820.00
2023-04-22T03:29:38.302Z,807.00
2023-04-22T03:30:37.986Z,812.00
2023-04-22T03:31:38.024Z,807.00
2023-04-22T03:32:38.026Z,811.00
2023-04-22T03:33:37.977Z,805.00
2023-04-22T03:34:37.975Z,810.00
2023-04-22T03:35:38.000Z,804.00
2023-04-22T03:36:37.966Z,797.00
2023-04-22T03:37:38.004Z,811.00
2023-04-22T03:38:38.002Z,807.00
2023-04-22T03:39:38.292Z,807.00
2023-04-22T03:40:38.025Z,801.00
2023-04-22T03:41:37.952Z,804.00
2023-04-22T03:42:38.007Z,803.00
2023-04-22T03:43:37.978Z,800.00
2023-04-22T03:44:38.010Z,801.00
2023-04-22T03:45:38.023Z,792.00
2023-04-22T03:46:37.995Z,799.00
2023-04-22T03:47:38.025Z,797.00
2023-04-22T03:48:38.011Z,793.00
2023-04-22T03:49:38.202Z,799.00
2023-04-22T03:50:38.040Z,787.00
2023-04-22T03:51:38.026Z,795.00
2023-04-22T03:52:38.073Z,785.00
2023-04-22T03:53:38.093Z,780.00
2023-04-22T03:54:38.100Z,783.00
2023-04-22T03:55:38.100Z,785.00
2023-04-22T03:56:38.143Z,793.00
2023-04-22T03:57:38.111Z,786.00
2023-04-22T03:58:38.114Z,789.00
2023-04-22T03:59:38.328Z,771.00
2023-04-22T04:00:38.165Z,788.00
2023-04-22T04:01:38.120Z,788.00
2023-04-22T04:02:38.233Z,782.00
2023-04-22T04:03:38.354Z,780.00
2023-04-22T04:04:38.391Z,782.00
2023-04-22T04:05:38.240Z,776.00
2023-04-22T04:06:38.212Z,776.00
2023-04-22T04:07:38.231Z,767.00
2023-04-22T04:08:38.319Z,770.00
2023-04-22T04:09:38.575Z,769.00
2023-04-22T04:10:38.274Z,775.00
2023-04-22T04:11:38.284Z,771.00
2023-04-22T04:12:38.247Z,772.00
2023-04-22T04:13:38.267Z,778.00
2023-04-22T04:14:38.297Z,769.00
2023-04-22T04:15:38.341Z,763.00
2023-04-22T04:16:38.300Z,761.00
2023-04-22T04:17:38.380Z,758.00
2023-04-22T04:18:38.289Z,759.00
2023-04-22T04:19:38.669Z,753.00
2023-04-22T04:20:38.300Z,755.00
2023-04-22T04:21:38.306Z,759.00
2023-04-22T04:22:38.368Z,762.00
2023-04-22T04:23:38.323Z,754.00
2023-04-22T04:24:38.326Z,764.00
2023-04-22T04:25:38.366Z,759.00
2023-04-22T04:26:38.362Z,750.00
2023-04-22T04:27:38.365Z,758.00
2023-04-22T04:28:38.394Z,750.00
2023-04-22T04:29:38.529Z,754.00
2023-04-22T04:30:38.434Z,755.00
2023-04-22T04:31:38.408Z,750.00
2023-04-22T04:32:38.418Z,751.00
2023-04-22T04:33:38.432Z,743.00
2023-04-22T04:34:38.404Z,744.00
2023-04-22T04:35:38.459Z,746.00
2023-04-22T04:36:38.434Z,747.00
2023-04-22T04:37:38.414Z,743.00
2023-04-22T04:38:38.430Z,735.00
2023-04-22T04:39:38.746Z,742.00
2023-04-22T04:40:38.450Z,742.00
2023-04-22T04:41:38.452Z,739.00
2023-04-22T04:42:38.439Z,738.00
2023-04-22T04:43:38.429Z,748.00
2023-04-22T04:44:38.427Z,743.00
2023-04-22T04:45:38.468Z,741.00
2023-04-22T04:46:38.467Z,742.00
2023-04-22T04:47:38.430Z,738.00
2023-04-22T04:48:38.448Z,736.00
2023-04-22T04:49:38.591Z,741.00
2023-04-22T04:50:38.439Z,735.00
2023-04-22T04:51:38.446Z,738.00
2023-04-22T04:52:38.456Z,731.00
2023-04-22T04:53:38.472Z,735.00
2023-04-22T04:54:38.542Z,737.00
2023-04-22T04:55:38.496Z,733.00
2023-04-22T04:56:38.480Z,733.00
2023-04-22T04:57:38.665Z,729.00
2023-04-22T04:58:38.541Z,734.00
2023-04-22T04:59:38.679Z,731.00
2023-04-22T05:00:38.540Z,738.00
2023-04-22T05:01:38.534Z,729.00
2023-04-22T05:02:38.640Z,721.00
2023-04-22T05:03:38.639Z,719.00
2023-04-22T05:04:38.652Z,724.00
2023-04-22T05:05:38.556Z,727.00
2023-04-22T05:06:38.497Z,725.00
2023-04-22T05:07:38.522Z,722.00
2023-04-22T05:08:38.482Z,712.00
2023-04-22T05:09:38.608Z,730.00
2023-04-22T05:10:38.496Z,721.00
2023-04-22T05:11:38.500Z,726.00
2023-04-22T05:12:38.550Z,733.00
2023-04-22T05:13:38.550Z,727.00
2023-04-22T05:14:38.541Z,726.00
2023-04-22T05:15:38.558Z,727.00
2023-04-22T05:16:38.626Z,721.00
2023-04-22T05:17:38.595Z,720.00
2023-04-22T05:18:38.616Z,732.00
2023-04-22T05:19:38.856Z,731.00
2023-04-22T05:20:38.715Z,736.00
2023-04-22T05:21:38.776Z,724.00
2023-04-22T05:22:38.799Z,725.00
2023-04-22T05:23:38.901Z,732.00
2023-04-22T05:24:38.960Z,731.00
2023-04-22T05:25:39.017Z,734.00
2023-04-22T05:26:39.056Z,736.00
2023-04-22T05:27:39.116Z,736.00
2023-04-22T05:28:39.190Z,736.00
2023-04-22T05:29:39.477Z,752.00
2023-04-22T05:30:39.323Z,740.00
2023-04-22T05:31:39.381Z,740.00
2023-04-22T05:32:39.427Z,736.00
2023-04-22T05:33:39.470Z,747.00
2023-04-22T05:34:39.518Z,742.00
2023-04-22T05:35:39.553Z,747.00
2023-04-22T05:36:39.625Z,743.00
2023-04-22T05:37:39.685Z,737.00
2023-04-22T05:38:39.725Z,739.00
2023-04-22T05:39:40.084Z,738.00
2023-04-22T05:40:39.830Z,746.00
2023-04-22T05:41:39.859Z,745.00
2023-04-22T05:42:39.919Z,725.00
2023-04-22T05:43:39.959Z,728.00
2023-04-22T05:44:40.058Z,728.00
2023-04-22T05:45:40.109Z,694.00
2023-04-22T05:46:40.124Z,729.00
2023-04-22T05:47:40.179Z,729.00
2023-04-22T05:48:40.156Z,706.00
2023-04-22T05:49:40.692Z,739.00
2023-04-22T05:50:40.263Z,695.00
2023-04-22T05:51:40.305Z,704.00
2023-04-22T05:52:40.356Z,725.00
2023-04-22T05:53:40.405Z,716.00
2023-04-22T05:54:40.425Z,746.00
2023-04-22T05:55:40.443Z,697.00
2023-04-22T05:56:40.489Z,732.00
2023-04-22T05:57:40.513Z,742.00
2023-04-22T05:58:40.566Z,713.00
2023-04-22T05:59:40.792Z,706.00
2023-04-22T06:00:40.647Z,697.00
2023-04-22T06:01:40.695Z,686.00
2023-04-22T06:02:40.890Z,701.00
2023-04-22T06:04:41.161Z,707.00
2023-04-22T06:05:40.834Z,711.00
2023-04-22T06:06:40.849Z,709.00
2023-04-22T06:07:40.900Z,711.00
2023-04-22T06:08:40.905Z,693.00
2023-04-22T06:09:41.215Z,712.00
2023-04-22T06:10:41.025Z,709.00
2023-04-22T06:11:41.072Z,701.00
2023-04-22T06:12:41.101Z,698.00
2023-04-22T06:13:41.190Z,687.00
2023-04-22T06:14:41.239Z,693.00
2023-04-22T06:15:41.282Z,678.00
2023-04-22T06:16:41.308Z,680.00
2023-04-22T06:17:41.443Z,683.00
2023-04-22T06:18:41.455Z,681.00
2023-04-22T06:19:41.656Z,680.00
2023-04-22T06:20:41.535Z,683.00
2023-04-22T06:21:41.621Z,672.00
2023-04-22T06:22:41.656Z,677.00
2023-04-22T06:23:41.727Z,679.00
2023-04-22T06:24:41.774Z,672.00
2023-04-22T06:25:41.846Z,665.00
2023-04-22T06:26:41.894Z,670.00
2023-04-22T06:27:41.935Z,670.00
2023-04-22T06:28:42.025Z,659.00
2023-04-22T06:29:42.060Z,676.00
2023-04-22T06:30:42.091Z,672.00
2023-04-22T06:31:42.175Z,673.00
2023-04-22T06:32:42.218Z,679.00
2023-04-22T06:33:42.263Z,670.00
2023-04-22T06:34:42.330Z,672.00
2023-04-22T06:35:42.354Z,666.00
2023-04-22T06:36:42.379Z,674.00
2023-04-22T06:37:42.422Z,680.00
2023-04-22T06:38:42.488Z,684.00
2023-04-22T06:39:43.013Z,688.00
2023-04-22T06:40:42.575Z,679.00
2023-04-22T06:41:42.614Z,680.00
2023-04-22T06:42:42.639Z,675.00
2023-04-22T06:43:42.667Z,666.00
2023-04-22T06:44:42.699Z,667.00
2023-04-22T06:45:42.747Z,666.00
2023-04-22T06:46:42.795Z,655.00
2023-04-22T06:47:42.863Z,655.00
2023-04-22T06:48:42.861Z,662.00
2023-04-22T06:49:42.905Z,672.00
2023-04-22T06:50:42.924Z,686.00
2023-04-22T06:51:42.966Z,686.00
2023-04-22T06:52:43.005Z,667.00
2023-04-22T06:53:43.078Z,669.00
2023-04-22T06:54:43.095Z,673.00
2023-04-22T06:55:43.075Z,677.00
2023-04-22T06:56:43.126Z,666.00
2023-04-22T06:57:43.171Z,659.00
2023-04-22T06:58:43.207Z,660.00
2023-04-22T06:59:45.333Z,665.00
2023-04-22T07:00:43.244Z,676.00
2023-04-22T07:01:43.281Z,683.00
2023-04-22T07:02:43.250Z,651.00
2023-04-22T07:03:43.273Z,664.00
2023-04-22T07:04:43.221Z,660.00
2023-04-22T07:05:43.209Z,663.00
2023-04-22T07:06:43.181Z,686.00
2023-04-22T07:07:43.172Z,665.00
2023-04-22T07:08:43.169Z,658.00
2023-04-22T07:09:43.173Z,657.00
2023-04-22T07:10:43.158Z,653.00
2023-04-22T07:11:43.174Z,664.00
2023-04-22T07:12:43.132Z,671.00
2023-04-22T07:13:43.148Z,662.00
2023-04-22T07:14:43.124Z,659.00
2023-04-22T07:15:43.163Z,664.00
2023-04-22T07:16:43.217Z,660.00
2023-04-22T07:17:43.108Z,656.00
2023-04-22T07:18:43.099Z,668.00
2023-04-22T07:19:43.124Z,666.00
2023-04-22T07:20:43.094Z,661.00
2023-04-22T07:21:43.099Z,658.00
2023-04-22T07:22:43.079Z,662.00
2023-04-22T07:23:43.120Z,661.00
2023-04-22T07:24:43.081Z,662.00
2023-04-22T07:25:43.063Z,669.00
2023-04-22T07:26:43.097Z,675.00
2023-04-22T07:27:43.058Z,675.00
2023-04-22T07:28:43.072Z,667.00
2023-04-22T07:29:43.040Z,670.00
2023-04-22T07:30:43.041Z,666.00
2023-04-22T07:31:43.041Z,652.00
2023-04-22T07:32:43.049Z,657.00
2023-04-22T07:33:42.997Z,660.00
2023-04-22T07:34:43.027Z,648.00
2023-04-22T07:35:42.988Z,652.00
2023-04-22T07:36:43.001Z,656.00
2023-04-22T07:37:42.981Z,650.00
2023-04-22T07:38:42.970Z,650.00
2023-04-22T07:39:42.996Z,639.00
2023-04-22T07:40:42.958Z,646.00
2023-04-22T07:41:42.963Z,655.00
2023-04-22T07:42:42.943Z,658.00
2023-04-22T07:43:42.946Z,652.00
2023-04-22T07:44:42.956Z,647.00
2023-04-22T07:45:43.029Z,647.00
2023-04-22T07:46:42.919Z,652.00
2023-04-22T07:47:42.925Z,655.00
2023-04-22T07:48:42.949Z,648.00
2023-04-22T07:49:42.914Z,639.00
2023-04-22T07:50:42.930Z,645.00
2023-04-22T07:51:42.911Z,641.00
2023-04-22T07:52:42.890Z,645.00
2023-04-22T07:53:42.893Z,641.00
2023-04-22T07:54:42.899Z,639.00
2023-04-22T07:55:42.933Z,637.00
2023-04-22T07:56:42.930Z,642.00
2023-04-22T07:57:42.949Z,647.00
2023-04-22T07:58:42.989Z,648.00
2023-04-22T07:59:43.005Z,643.00
2023-04-22T08:00:43.056Z,646.00
2023-04-22T08:01:43.091Z,648.00
2023-04-22T08:02:43.206Z,648.00
2023-04-22T08:03:43.353Z,638.00
2023-04-22T08:04:43.282Z,630.00
2023-04-22T08:05:43.229Z,642.00
2023-04-22T08:06:43.239Z,649.00
2023-04-22T08:07:43.366Z,634.00
2023-04-22T08:08:43.281Z,640.00
2023-04-22T08:09:43.313Z,640.00
2023-04-22T08:10:43.349Z,650.00
2023-04-22T08:11:43.364Z,635.00
2023-04-22T08:12:43.372Z,640.00
2023-04-22T08:13:43.397Z,636.00
2023-04-22T08:14:43.450Z,644.00
2023-04-22T08:15:43.541Z,651.00
2023-04-22T08:16:43.452Z,633.00
2023-04-22T08:17:43.561Z,642.00
2023-04-22T08:18:43.510Z,644.00
2023-04-22T08:19:43.518Z,638.00
2023-04-22T08:20:43.542Z,643.00
2023-04-22T08:21:44.409Z,630.00
2023-04-22T08:22:43.578Z,648.00
2023-04-22T08:23:43.601Z,646.00
2023-04-22T08:24:43.626Z,640.00
2023-04-22T08:25:43.662Z,642.00
2023-04-22T08:26:43.670Z,625.00
2023-04-22T08:27:43.757Z,637.00
2023-04-22T08:28:43.749Z,642.00
2023-04-22T08:29:44.049Z,632.00
2023-04-22T08:30:43.816Z,630.00
2023-04-22T08:31:43.872Z,639.00
2023-04-22T08:32:43.867Z,636.00
2023-04-22T08:33:43.827Z,645.00
2023-04-22T08:34:44.112Z,635.00
2023-04-22T08:35:43.858Z,642.00
2023-04-22T08:36:43.911Z,641.00
2023-04-22T08:37:43.927Z,624.00
2023-04-22T08:38:43.921Z,634.00
2023-04-22T08:39:43.926Z,639.00
2023-04-22T08:40:43.981Z,634.00
2023-04-22T08:41:43.986Z,624.00
2023-04-22T08:42:44.017Z,631.00
2023-04-22T08:43:44.015Z,626.00
2023-04-22T08:44:44.030Z,631.00
2023-04-22T08:45:44.080Z,634.00
2023-04-22T08:46:44.222Z,641.00
2023-04-22T08:47:44.161Z,630.00
2023-04-22T08:48:44.147Z,634.00
2023-04-22T08:49:44.182Z,635.00
2023-04-22T08:50:44.219Z,630.00
2023-04-22T08:51:44.256Z,624.00
2023-04-22T08:52:44.225Z,639.00
2023-04-22T08:53:44.270Z,628.00
2023-04-22T08:54:44.303Z,629.00
2023-04-22T08:55:44.374Z,635.00
2023-04-22T08:56:44.344Z,624.00
2023-04-22T08:57:44.368Z,623.00
2023-04-22T08:58:44.371Z,632.00
2023-04-22T08:59:44.419Z,628.00
2023-04-22T09:00:44.423Z,627.00
2023-04-22T09:01:44.564Z,632.00
2023-04-22T09:02:44.520Z,622.00
2023-04-22T09:03:44.600Z,632.00
2023-04-22T09:04:44.512Z,632.00
2023-04-22T09:05:44.561Z,621.00
2023-04-22T09:06:44.577Z,629.00
2023-04-22T09:07:44.635Z,632.00
2023-04-22T09:08:44.645Z,631.00
2023-04-22T09:09:44.621Z,622.00
2023-04-22T09:10:44.665Z,625.00
2023-04-22T09:11:44.672Z,624.00
2023-04-22T09:12:44.701Z,625.00
2023-04-22T09:13:44.739Z,632.00
2023-04-22T09:14:44.751Z,626.00
2023-04-22T09:15:44.795Z,624.00
2023-04-22T09:16:44.946Z,633.00
2023-04-22T09:17:44.918Z,623.00
2023-04-22T09:18:44.892Z,626.00
2023-04-22T09:19:44.909Z,639.00
2023-04-22T09:20:44.971Z,633.00
2023-04-22T09:21:45.917Z,624.00
2023-04-22T09:22:44.952Z,632.00
2023-04-22T09:23:44.962Z,630.00
2023-04-22T09:24:44.974Z,625.00
2023-04-22T09:25:44.974Z,628.00
2023-04-22T09:26:44.946Z,613.00
2023-04-22T09:27:44.950Z,623.00
2023-04-22T09:28:44.924Z,620.00
2023-04-22T09:29:44.951Z,618.00
2023-04-22T09:30:44.924Z,628.00
2023-04-22T09:31:44.963Z,630.00
2023-04-22T09:32:44.967Z,618.00
2023-04-22T09:33:44.930Z,620.00
2023-04-22T09:34:44.946Z,612.00
2023-04-22T09:35:44.912Z,632.00
2023-04-22T09:36:44.914Z,619.00
2023-04-22T09:37:49.585Z,622.00
2023-04-22T09:38:44.851Z,622.00
2023-04-22T09:39:44.866Z,623.00
2023-04-22T09:40:44.871Z,622.00
2023-04-22T09:41:44.850Z,616.00
2023-04-22T09:42:44.860Z,627.00
2023-04-22T09:43:44.847Z,627.00
2023-04-22T09:44:44.864Z,626.00
2023-04-22T09:45:44.873Z,624.00
2023-04-22T09:46:44.814Z,624.00
2023-04-22T09:47:44.801Z,630.00
2023-04-22T09:48:44.788Z,624.00
2023-04-22T09:49:44.866Z,620.00
2023-04-22T09:50:44.897Z,608.00
2023-04-22T09:51:51.985Z,627.00
2023-04-22T09:52:44.900Z,628.00
2023-04-22T09:53:44.963Z,628.00
2023-04-22T09:54:44.891Z,627.00
2023-04-22T09:55:44.863Z,628.00
2023-04-22T09:56:44.901Z,626.00
2023-04-22T09:57:44.877Z,621.00
2023-04-22T09:58:44.914Z,618.00
2023-04-22T09:59:44.867Z,626.00
2023-04-22T10:00:44.866Z,616.00
2023-04-22T10:01:44.894Z,625.00
2023-04-22T10:02:44.912Z,627.00
2023-04-22T10:03:44.888Z,619.00
2023-04-22T10:04:44.812Z,624.00
2023-04-22T10:05:44.819Z,624.00
2023-04-22T10:06:44.835Z,622.00
2023-04-22T10:07:44.873Z,624.00
2023-04-22T10:08:44.796Z,622.00
2023-04-22T10:09:44.830Z,621.00
2023-04-22T10:10:44.829Z,618.00
2023-04-22T10:11:44.822Z,621.00
2023-04-22T10:12:44.777Z,622.00
2023-04-22T10:13:44.764Z,618.00
2023-04-22T10:14:44.764Z,621.00
2023-04-22T10:15:44.744Z,619.00
2023-04-22T10:16:44.883Z,617.00
2023-04-22T10:17:44.929Z,619.00
2023-04-22T10:18:44.944Z,621.00
2023-04-22T10:19:45.013Z,617.00
2023-04-22T10:20:45.072Z,619.00
2023-04-22T10:21:45.142Z,619.00
2023-04-22T10:22:45.182Z,618.00
2023-04-22T10:23:45.244Z,619.00
2023-04-22T10:24:45.294Z,617.00
2023-04-22T10:25:45.364Z,620.00
2023-04-22T10:26:45.425Z,620.00
2023-04-22T10:27:45.467Z,617.00
2023-04-22T10:28:45.530Z,615.00
2023-04-22T10:29:45.598Z,617.00
2023-04-22T10:30:45.682Z,617.00
2023-04-22T10:31:45.695Z,614.00
2023-04-22T10:32:45.790Z,615.00
2023-04-22T10:33:45.797Z,616.00
2023-04-22T10:34:45.882Z,614.00
2023-04-22T10:35:45.934Z,618.00
2023-04-22T10:36:46.003Z,616.00
2023-04-22T10:37:46.061Z,618.00
2023-04-22T10:38:46.130Z,616.00
2023-04-22T10:39:46.178Z,615.00
2023-04-22T10:40:46.228Z,612.00
2023-04-22T10:41:46.284Z,610.00
2023-04-22T10:42:46.330Z,614.00
2023-04-22T10:43:46.364Z,609.00
2023-04-22T10:44:46.479Z,613.00
2023-04-22T10:45:46.495Z,610.00
2023-04-22T10:46:46.539Z,612.00
2023-04-22T10:47:46.589Z,613.00
2023-04-22T10:48:46.660Z,615.00
2023-04-22T10:49:46.698Z,612.00
2023-04-22T10:50:46.749Z,609.00
2023-04-22T10:51:46.790Z,610.00
2023-04-22T10:52:46.845Z,613.00
2023-04-22T10:53:46.933Z,614.00
2023-04-22T10:54:46.947Z,610.00
2023-04-22T10:55:46.994Z,615.00
2023-04-22T10:56:51.887Z,610.00
2023-04-22T10:57:48.020Z,610.00
2023-04-22T10:58:47.026Z,611.00
2023-04-22T10:59:48.770Z,611.00
2023-04-22T11:01:48.181Z,611.00
2023-04-22T11:02:47.100Z,611.00
2023-04-22T11:03:47.084Z,611.00
2023-04-22T11:04:46.995Z,611.00
2023-04-22T11:05:46.968Z,614.00
2023-04-22T11:06:46.985Z,609.00
2023-04-22T11:07:46.987Z,611.00
2023-04-22T11:08:46.939Z,608.00
2023-04-22T11:09:46.924Z,609.00
2023-04-22T11:10:46.971Z,610.00
2023-04-22T11:11:46.944Z,608.00
2023-04-22T11:12:46.933Z,608.00
2023-04-22T11:13:46.919Z,608.00
2023-04-22T11:14:46.992Z,611.00
2023-04-22T11:15:46.969Z,607.00
2023-04-22T11:16:47.155Z,608.00
2023-04-22T11:17:47.024Z,607.00
2023-04-22T11:18:47.056Z,605.00
2023-04-22T11:19:47.072Z,607.00
2023-04-22T11:20:47.066Z,609.00
2023-04-22T11:21:47.401Z,610.00
2023-04-22T11:22:47.107Z,608.00
2023-04-22T11:23:47.154Z,610.00
2023-04-22T11:24:47.212Z,609.00
2023-04-22T11:25:47.247Z,608.00
2023-04-22T11:26:47.294Z,611.00
2023-04-22T11:27:47.321Z,605.00
2023-04-22T11:28:47.379Z,608.00
2023-04-22T11:29:47.433Z,606.00
2023-04-22T11:30:47.451Z,606.00
2023-04-22T11:31:47.520Z,610.00
2023-04-22T11:32:47.601Z,608.00
2023-04-22T11:33:49.786Z,606.00
2023-04-22T11:34:47.540Z,614.00
2023-04-22T11:35:47.540Z,609.00
2023-04-22T11:36:47.578Z,607.00
2023-04-22T11:37:47.521Z,610.00
2023-04-22T11:38:47.525Z,605.00
2023-04-22T11:40:05.267Z,606.00
2023-04-22T11:40:49.111Z,607.00
2023-04-22T11:41:47.520Z,607.00
2023-04-22T11:42:47.485Z,607.00
2023-04-22T11:43:47.470Z,610.00
2023-04-22T11:44:47.499Z,612.00
2023-04-22T11:45:47.508Z,608.00
2023-04-22T11:46:47.507Z,606.00
2023-04-22T11:47:47.476Z,610.00
2023-04-22T11:48:47.466Z,608.00
2023-04-22T11:49:47.435Z,607.00
2023-04-22T11:50:47.444Z,605.00
2023-04-22T11:51:47.482Z,611.00
2023-04-22T11:52:47.499Z,608.00
2023-04-22T11:53:47.520Z,607.00
2023-04-22T11:54:47.524Z,608.00
2023-04-22T11:55:47.540Z,607.00
2023-04-22T11:56:47.593Z,607.00
2023-04-22T11:57:47.643Z,609.00
2023-04-22T11:58:47.677Z,608.00
2023-04-22T11:59:47.678Z,608.00
2023-04-22T12:00:47.681Z,608.00
2023-04-22T12:01:47.700Z,609.00
2023-04-22T12:02:47.813Z,609.00
2023-04-22T12:03:47.936Z,608.00
2023-04-22T12:04:47.862Z,607.00
2023-04-22T12:05:47.829Z,607.00
2023-04-22T12:06:47.969Z,614.00
2023-04-22T12:07:48.083Z,611.00
2023-04-22T12:08:48.054Z,609.00
2023-04-22T12:09:48.116Z,611.00
2023-04-22T12:10:48.150Z,610.00
2023-04-22T12:11:48.236Z,612.00
2023-04-22T12:12:48.290Z,612.00
2023-04-22T12:13:48.319Z,612.00
2023-04-22T12:14:48.408Z,613.00
2023-04-22T12:15:48.456Z,613.00
2023-04-22T12:16:48.536Z,611.00
2023-04-22T12:17:48.610Z,608.00
2023-04-22T12:18:48.629Z,612.00
2023-04-22T12:19:48.669Z,610.00
2023-04-22T12:20:48.720Z,611.00
2023-04-22T12:21:48.819Z,612.00
2023-04-22T12:22:48.870Z,615.00
2023-04-22T12:23:48.868Z,613.00
2023-04-22T12:24:48.936Z,612.00
2023-04-22T12:25:48.978Z,610.00
2023-04-22T12:26:49.061Z,613.00
2023-04-22T12:27:49.068Z,612.00
2023-04-22T12:28:49.115Z,611.00
2023-04-22T12:29:49.120Z,610.00